Terminal Aerodrome Forecast
Issued by NWS Wichita, KS

Home | Current Version | Previous Version | Text Only | Print | Product List | Glossary On
Versions: 1 2 3 4 5 6 7 8 9 10 11 12 13 14
747
FTUS43 KICT 071945 AAC
TAFICT
TAF AMD
KICT 071945Z 0720/0818 02017KT 6SM -SN SCT015 BKN022 OVC070
      TEMPO 0720/0723 2SM -SN BKN013 OVC022
     FM072300 36009KT P6SM BKN015 OVC080
     FM080200 35009KT P6SM SCT025 SCT080=

USA.gov is the U.S. government's official web portal to all federal, state and local government web resources and services.